createdAt,value
2023-01-09T00:01:44.197Z,8.62
2023-01-09T00:04:14.537Z,8.60
2023-01-09T00:06:43.656Z,8.56
2023-01-09T00:09:12.522Z,8.59
2023-01-09T00:11:40.937Z,8.62
2023-01-09T00:14:11.058Z,8.77
2023-01-09T00:16:39.577Z,8.96
2023-01-09T00:19:08.031Z,9.12
2023-01-09T00:21:39.349Z,9.25
2023-01-09T00:24:08.623Z,9.33
2023-01-09T00:26:37.036Z,9.38
2023-01-09T00:29:07.735Z,9.42
2023-01-09T00:31:37.090Z,9.45
2023-01-09T00:34:10.605Z,9.49
2023-01-09T00:36:40.422Z,9.50
2023-01-09T00:39:08.850Z,9.51
2023-01-09T00:41:40.486Z,9.52
2023-01-09T00:44:13.003Z,9.54
2023-01-09T00:46:46.130Z,9.58
2023-01-09T00:49:16.031Z,9.48
2023-01-09T00:51:46.878Z,9.62
2023-01-09T00:54:17.791Z,8.94
2023-01-09T00:56:47.028Z,9.69
2023-01-09T00:59:15.468Z,9.73
2023-01-09T01:01:43.903Z,9.76
2023-01-09T01:04:29.541Z,9.79
2023-01-09T01:07:16.604Z,9.80
2023-01-09T01:09:45.030Z,9.79
2023-01-09T01:12:13.382Z,9.83
2023-01-09T01:14:41.801Z,9.86
2023-01-09T01:17:11.158Z,9.89
2023-01-09T01:19:39.547Z,9.90
2023-01-09T01:22:09.345Z,9.91
2023-01-09T01:24:37.789Z,9.91
2023-01-09T01:27:06.212Z,9.92
2023-01-09T01:29:34.732Z,9.91
2023-01-09T01:32:04.138Z,9.90
2023-01-09T01:34:32.601Z,9.86
2023-01-09T01:37:00.880Z,9.83
2023-01-09T01:39:30.665Z,9.81
2023-01-09T01:41:59.049Z,9.75
2023-01-09T01:44:58.837Z,9.72
2023-01-09T01:47:33.604Z,8.82
2023-01-09T01:50:05.484Z,9.70
2023-01-09T01:52:35.560Z,9.68
2023-01-09T01:55:09.703Z,9.63
2023-01-09T01:57:41.429Z,9.41
2023-01-09T02:00:18.735Z,9.52
2023-01-09T02:02:47.713Z,9.47
2023-01-09T02:05:17.218Z,9.39
2023-01-09T02:07:45.528Z,9.29
2023-01-09T02:10:16.223Z,9.09
2023-01-09T02:12:44.625Z,9.23
2023-01-09T02:15:16.312Z,9.21
2023-01-09T02:18:14.046Z,9.22
2023-01-09T02:20:53.644Z,9.16
2023-01-09T02:23:50.668Z,8.97
2023-01-09T02:26:36.840Z,8.25
2023-01-09T02:29:44.087Z,9.07
2023-01-09T02:32:20.897Z,9.09
2023-01-09T02:35:00.149Z,8.89
2023-01-09T02:37:38.441Z,9.08
2023-01-09T02:40:14.667Z,9.16
2023-01-09T02:42:44.257Z,9.19
2023-01-09T02:45:12.639Z,9.16
2023-01-09T02:47:44.755Z,9.11
2023-01-09T02:50:18.434Z,9.07
2023-01-09T02:53:06.515Z,8.90
2023-01-09T02:55:51.745Z,8.77
2023-01-09T02:58:33.590Z,8.92
2023-01-09T03:01:12.414Z,8.88
2023-01-09T03:03:50.625Z,8.80
2023-01-09T03:06:26.414Z,8.75
2023-01-09T03:09:00.006Z,8.57
2023-01-09T03:11:32.108Z,8.73
2023-01-09T03:14:08.438Z,8.67
2023-01-09T03:16:38.849Z,8.77
2023-01-09T03:19:15.058Z,8.78
2023-01-09T03:21:44.033Z,8.82
2023-01-09T03:24:12.331Z,8.81
2023-01-09T03:26:41.325Z,8.81
2023-01-09T03:29:10.763Z,8.78
2023-01-09T03:31:39.266Z,8.83
2023-01-09T03:34:09.265Z,8.96
2023-01-09T03:36:37.743Z,9.04
2023-01-09T03:39:06.022Z,9.12
2023-01-09T03:41:34.442Z,8.95
2023-01-09T03:44:02.811Z,9.18
2023-01-09T03:46:31.209Z,9.20
2023-01-09T03:49:00.162Z,9.14
2023-01-09T03:51:30.027Z,9.28
2023-01-09T03:53:58.435Z,9.26
2023-01-09T03:56:26.841Z,9.28
2023-01-09T03:58:55.155Z,9.27
2023-01-09T04:01:23.543Z,9.18
2023-01-09T04:03:52.137Z,9.13
2023-01-09T04:06:20.558Z,9.18
2023-01-09T04:08:50.298Z,9.22
2023-01-09T04:11:18.831Z,9.22
2023-01-09T04:13:47.261Z,9.18
2023-01-09T04:16:15.604Z,9.12
2023-01-09T04:18:44.152Z,9.06
2023-01-09T04:21:12.717Z,8.95
2023-01-09T04:23:41.073Z,8.76
2023-01-09T04:26:10.801Z,8.94
2023-01-09T04:28:39.174Z,8.87
2023-01-09T04:31:07.758Z,8.88
2023-01-09T04:33:36.531Z,8.79
2023-01-09T04:36:05.306Z,8.77
2023-01-09T04:38:33.793Z,8.78
2023-01-09T04:41:02.099Z,8.79
2023-01-09T04:43:31.947Z,8.78
2023-01-09T04:46:00.374Z,8.77
2023-01-09T04:48:28.775Z,8.73
2023-01-09T04:50:57.212Z,8.66
2023-01-09T04:53:25.649Z,8.56
2023-01-09T04:55:53.924Z,8.44
2023-01-09T04:58:23.639Z,8.33
2023-01-09T05:00:53.607Z,8.30
2023-01-09T05:03:23.401Z,8.20
2023-01-09T05:05:51.816Z,8.11
2023-01-09T05:08:20.189Z,8.04
2023-01-09T05:10:48.665Z,8.01
2023-01-09T05:13:17.060Z,8.04
2023-01-09T05:15:45.455Z,8.10
2023-01-09T05:18:15.328Z,8.13
2023-01-09T05:20:43.744Z,8.19
2023-01-09T05:23:12.206Z,8.29
2023-01-09T05:25:40.602Z,8.34
2023-01-09T05:28:08.947Z,8.36
2023-01-09T05:30:37.635Z,8.38
2023-01-09T05:33:06.077Z,8.43
2023-01-09T05:35:35.949Z,8.48
2023-01-09T05:38:04.279Z,8.43
2023-01-09T05:40:40.046Z,8.46
2023-01-09T05:43:09.202Z,8.44
2023-01-09T05:45:37.633Z,8.42
2023-01-09T05:48:06.216Z,8.40
2023-01-09T05:50:36.044Z,8.43
2023-01-09T05:53:04.568Z,8.43
2023-01-09T05:55:32.892Z,8.39
2023-01-09T05:58:01.382Z,8.32
2023-01-09T06:00:29.751Z,8.31
2023-01-09T06:02:58.113Z,8.24
2023-01-09T06:05:26.422Z,8.21
2023-01-09T06:07:56.209Z,8.14
2023-01-09T06:10:24.721Z,7.82
2023-01-09T06:12:54.737Z,8.12
2023-01-09T06:15:23.275Z,8.10
2023-01-09T06:17:51.721Z,8.09
2023-01-09T06:20:20.287Z,8.09
2023-01-09T06:22:52.135Z,8.07
2023-01-09T06:25:21.950Z,8.00
2023-01-09T06:27:52.319Z,7.95
2023-01-09T06:30:21.529Z,7.89
2023-01-09T06:32:50.919Z,7.77
2023-01-09T06:35:20.845Z,7.72
2023-01-09T06:37:49.930Z,7.63
2023-01-09T06:40:18.759Z,7.59
2023-01-09T06:42:49.515Z,7.44
2023-01-09T06:45:18.074Z,7.39
2023-01-09T06:47:46.473Z,7.36
2023-01-09T06:50:14.789Z,7.37
2023-01-09T06:52:43.139Z,7.34
2023-01-09T06:55:11.833Z,7.30
2023-01-09T06:57:40.337Z,7.28
2023-01-09T07:00:11.872Z,7.02
2023-01-09T07:02:40.226Z,7.14
2023-01-09T07:05:11.985Z,7.11
2023-01-09T07:07:41.252Z,7.08
2023-01-09T07:10:11.174Z,7.06
2023-01-09T07:12:39.460Z,6.91
2023-01-09T07:15:10.361Z,6.80
2023-01-09T07:17:38.712Z,6.70
2023-01-09T07:20:08.347Z,6.62
2023-01-09T07:22:37.722Z,6.55
2023-01-09T07:25:06.898Z,6.58
2023-01-09T07:27:35.311Z,6.64
2023-01-09T07:30:03.789Z,6.67
2023-01-09T07:32:33.595Z,6.76
2023-01-09T07:35:02.147Z,6.74
2023-01-09T07:37:30.629Z,6.74
2023-01-09T07:39:59.033Z,6.80
2023-01-09T07:42:27.678Z,6.88
2023-01-09T07:44:56.025Z,6.97
2023-01-09T07:47:24.361Z,6.99
2023-01-09T07:49:54.135Z,7.00
2023-01-09T07:52:22.511Z,7.01
2023-01-09T07:54:50.795Z,7.10
2023-01-09T07:57:19.109Z,7.19
2023-01-09T07:59:47.502Z,7.27
2023-01-09T08:02:16.036Z,7.35
2023-01-09T08:04:44.360Z,7.57
2023-01-09T08:07:15.487Z,7.83
2023-01-09T08:09:43.841Z,7.98
2023-01-09T08:12:12.207Z,8.15
2023-01-09T08:14:40.587Z,8.30
2023-01-09T08:17:09.596Z,8.46
2023-01-09T08:19:38.000Z,8.53
2023-01-09T08:22:06.300Z,8.57
2023-01-09T08:24:36.796Z,8.62
2023-01-09T08:27:05.311Z,8.67
2023-01-09T08:29:33.637Z,8.77
2023-01-09T08:32:02.107Z,8.91
2023-01-09T08:34:30.720Z,9.04
2023-01-09T08:36:59.626Z,9.15
2023-01-09T08:39:27.995Z,9.41
2023-01-09T08:42:14.944Z,9.70
2023-01-09T08:45:00.657Z,10.03
2023-01-09T08:47:33.485Z,10.34
2023-01-09T08:50:02.380Z,10.66
2023-01-09T08:52:31.197Z,10.92
2023-01-09T08:54:59.775Z,11.14
2023-01-09T08:57:29.413Z,11.41
2023-01-09T08:59:57.853Z,11.51
2023-01-09T09:02:26.297Z,11.58
2023-01-09T09:04:56.253Z,11.64
2023-01-09T09:07:27.529Z,11.57
2023-01-09T09:09:56.071Z,11.56
2023-01-09T09:12:24.732Z,11.56
2023-01-09T09:15:11.727Z,11.48
2023-01-09T09:17:41.385Z,11.29
2023-01-09T09:20:11.575Z,11.09
2023-01-09T09:22:40.052Z,11.15
2023-01-09T09:25:08.758Z,11.31
2023-01-09T09:27:38.026Z,11.31
2023-01-09T09:30:10.092Z,10.59
2023-01-09T09:32:38.631Z,11.22
2023-01-09T09:35:07.689Z,11.31
2023-01-09T09:37:36.461Z,11.40
2023-01-09T09:40:17.390Z,11.49
2023-01-09T09:43:24.011Z,11.57
2023-01-09T09:45:59.171Z,11.03
2023-01-09T09:48:37.474Z,11.52
2023-01-09T09:51:25.551Z,11.45
2023-01-09T09:54:00.777Z,11.01
2023-01-09T09:56:33.500Z,11.46
2023-01-09T09:59:05.687Z,10.89
2023-01-09T10:01:41.465Z,11.73
2023-01-09T10:04:14.265Z,11.81
2023-01-09T10:06:45.073Z,11.12
2023-01-09T10:09:25.553Z,11.82
2023-01-09T10:12:01.164Z,11.94
2023-01-09T10:14:29.944Z,12.11
2023-01-09T10:17:13.465Z,12.17
2023-01-09T10:20:02.661Z,12.26
2023-01-09T10:22:43.469Z,12.29
2023-01-09T10:25:24.093Z,12.38
2023-01-09T10:28:12.011Z,12.42
2023-01-09T10:30:44.461Z,12.37
2023-01-09T10:33:28.681Z,12.41
2023-01-09T10:36:18.115Z,12.44
2023-01-09T10:38:49.425Z,12.50
2023-01-09T10:41:23.912Z,12.56
2023-01-09T10:43:58.394Z,11.78
2023-01-09T10:46:31.785Z,12.69
2023-01-09T10:49:04.021Z,12.77
2023-01-09T10:51:39.865Z,12.11
2023-01-09T10:54:14.426Z,12.91
2023-01-09T10:56:47.701Z,12.96
2023-01-09T10:59:17.382Z,12.99
2023-01-09T11:01:47.125Z,12.90
2023-01-09T11:04:26.086Z,13.10
2023-01-09T11:07:00.197Z,13.14
2023-01-09T11:09:28.660Z,13.08
2023-01-09T11:11:56.952Z,13.09
2023-01-09T11:14:31.484Z,13.16
2023-01-09T11:17:01.584Z,13.06
2023-01-09T11:19:33.672Z,13.19
2023-01-09T11:22:09.535Z,13.20
2023-01-09T11:24:38.115Z,13.22
2023-01-09T11:27:27.687Z,13.10
2023-01-09T11:30:15.780Z,13.29
2023-01-09T11:32:45.944Z,13.21
2023-01-09T11:35:23.259Z,13.28
2023-01-09T11:38:02.002Z,13.16
2023-01-09T11:40:33.189Z,13.26
2023-01-09T11:43:13.131Z,13.06
2023-01-09T11:45:59.876Z,12.47
2023-01-09T11:48:41.883Z,13.26
2023-01-09T11:51:23.530Z,13.20
2023-01-09T11:54:15.858Z,13.14
2023-01-09T11:56:44.648Z,12.92
2023-01-09T11:59:14.589Z,12.98
2023-01-09T12:01:58.121Z,13.03
2023-01-09T12:04:31.302Z,12.97
2023-01-09T12:07:39.701Z,12.96
2023-01-09T12:10:26.840Z,12.69
2023-01-09T12:13:04.494Z,12.78
2023-01-09T12:15:43.388Z,12.73
2023-01-09T12:18:37.584Z,12.55
2023-01-09T12:21:23.894Z,12.49
2023-01-09T12:24:10.653Z,12.53
2023-01-09T12:26:46.478Z,12.54
2023-01-09T12:29:37.952Z,12.48
2023-01-09T12:32:18.987Z,12.29
2023-01-09T12:34:59.318Z,12.26
2023-01-09T12:37:47.703Z,12.21
2023-01-09T12:40:36.088Z,12.36
2023-01-09T12:43:14.253Z,12.28
2023-01-09T12:45:56.200Z,12.21
2023-01-09T12:48:40.759Z,12.14
2023-01-09T12:51:27.197Z,12.10
2023-01-09T12:54:03.575Z,12.12
2023-01-09T12:56:37.681Z,12.09
2023-01-09T12:59:22.263Z,12.05
2023-01-09T13:01:52.758Z,12.03
2023-01-09T13:04:26.425Z,11.97
2023-01-09T13:06:59.861Z,11.86
2023-01-09T13:09:34.287Z,11.77
2023-01-09T13:12:09.064Z,11.52
2023-01-09T13:14:52.753Z,10.79
2023-01-09T13:17:29.100Z,11.47
2023-01-09T13:19:57.667Z,11.35
2023-01-09T13:22:28.811Z,11.32
2023-01-09T13:25:16.831Z,11.29
2023-01-09T13:27:56.230Z,11.25
2023-01-09T13:30:50.427Z,10.35
2023-01-09T13:33:23.402Z,11.01
2023-01-09T13:35:54.169Z,10.90
2023-01-09T13:38:25.456Z,10.95
2023-01-09T13:41:29.318Z,11.03
2023-01-09T13:44:01.632Z,11.00
2023-01-09T13:46:37.996Z,10.81
2023-01-09T13:49:06.648Z,11.10
2023-01-09T13:52:00.544Z,11.16
2023-01-09T13:55:03.167Z,11.08
2023-01-09T13:57:35.006Z,10.71
2023-01-09T14:00:44.548Z,11.07
2023-01-09T14:03:25.989Z,10.98
2023-01-09T14:06:19.683Z,11.00
2023-01-09T14:08:50.713Z,10.93
2023-01-09T14:11:27.532Z,10.89
2023-01-09T14:14:22.913Z,10.92
2023-01-09T14:16:51.731Z,10.92
2023-01-09T14:19:36.336Z,10.95
2023-01-09T14:22:06.478Z,10.96
2023-01-09T14:24:41.861Z,11.00
2023-01-09T14:27:43.413Z,10.99
2023-01-09T14:30:33.890Z,10.72
2023-01-09T14:33:04.717Z,10.88
2023-01-09T14:35:46.606Z,10.92
2023-01-09T14:38:31.898Z,10.91
2023-01-09T14:41:10.416Z,10.80
2023-01-09T14:43:51.063Z,10.46
2023-01-09T14:46:21.717Z,10.56
2023-01-09T14:49:02.002Z,10.61
2023-01-09T14:51:37.219Z,10.76
2023-01-09T14:54:20.042Z,10.73
2023-01-09T14:56:48.594Z,10.69
2023-01-09T14:59:18.004Z,10.74
2023-01-09T15:01:49.536Z,10.56
2023-01-09T15:04:27.533Z,10.76
2023-01-09T15:06:57.470Z,10.74
2023-01-09T15:09:28.979Z,10.70
2023-01-09T15:12:02.202Z,10.70
2023-01-09T15:14:33.644Z,10.49
2023-01-09T15:17:03.360Z,10.62
2023-01-09T15:19:33.186Z,10.60
2023-01-09T15:22:05.418Z,10.61
2023-01-09T15:24:35.144Z,10.58
2023-01-09T15:27:05.935Z,10.57
2023-01-09T15:29:34.494Z,10.56
2023-01-09T15:32:07.816Z,10.56
2023-01-09T15:34:37.439Z,10.44
2023-01-09T15:37:25.508Z,10.48
2023-01-09T15:39:55.966Z,10.48
2023-01-09T15:42:44.593Z,10.49
2023-01-09T15:45:24.326Z,10.44
2023-01-09T15:47:53.430Z,10.40
2023-01-09T15:50:27.882Z,10.22
2023-01-09T15:52:58.206Z,10.37
2023-01-09T15:55:35.311Z,10.16
2023-01-09T15:58:05.894Z,10.05
2023-01-09T16:00:44.073Z,10.23
2023-01-09T16:03:24.285Z,10.18
2023-01-09T16:05:57.410Z,9.96
2023-01-09T16:08:33.100Z,10.09
2023-01-09T16:11:05.348Z,10.07
2023-01-09T16:13:40.603Z,10.00
2023-01-09T16:16:09.455Z,9.99
2023-01-09T16:18:39.358Z,9.97
2023-01-09T16:21:24.024Z,9.82
2023-01-09T16:23:56.435Z,9.91
2023-01-09T16:26:27.448Z,9.84
2023-01-09T16:28:56.444Z,9.83
2023-01-09T16:31:27.207Z,9.44
2023-01-09T16:33:59.352Z,9.74
2023-01-09T16:36:29.416Z,9.72
2023-01-09T16:39:00.959Z,9.74
2023-01-09T16:41:46.968Z,9.72
2023-01-09T16:44:15.601Z,9.71
2023-01-09T16:46:45.739Z,9.71
2023-01-09T16:49:19.746Z,9.10
2023-01-09T16:51:48.901Z,9.62
2023-01-09T16:54:18.776Z,9.52
2023-01-09T16:56:50.412Z,9.49
2023-01-09T16:59:24.657Z,8.69
2023-01-09T17:01:53.805Z,9.44
2023-01-09T17:04:24.028Z,9.42
2023-01-09T17:06:53.128Z,9.35
2023-01-09T17:09:27.407Z,9.40
2023-01-09T17:11:56.024Z,9.37
2023-01-09T17:14:24.721Z,9.37
2023-01-09T17:16:57.468Z,9.34
2023-01-09T17:19:26.459Z,9.28
2023-01-09T17:21:54.772Z,9.27
2023-01-09T17:24:42.223Z,9.27
2023-01-09T17:27:28.808Z,9.23
2023-01-09T17:29:57.228Z,9.21
2023-01-09T17:32:25.722Z,9.20
2023-01-09T17:34:54.114Z,9.14
2023-01-09T17:37:22.716Z,9.09
2023-01-09T17:39:52.547Z,9.05
2023-01-09T17:42:21.056Z,9.05
2023-01-09T17:44:49.431Z,9.04
2023-01-09T17:47:17.782Z,9.02
2023-01-09T17:49:46.251Z,8.99
2023-01-09T17:52:14.888Z,9.00
2023-01-09T17:54:43.389Z,9.02
2023-01-09T17:57:20.167Z,8.87
2023-01-09T17:59:48.676Z,8.98
2023-01-09T18:02:20.529Z,8.98
2023-01-09T18:04:48.944Z,8.95
2023-01-09T18:07:17.908Z,8.98
2023-01-09T18:09:46.658Z,8.96
2023-01-09T18:12:16.462Z,8.95
2023-01-09T18:14:45.720Z,8.98
2023-01-09T18:17:14.741Z,8.98
2023-01-09T18:19:43.958Z,8.95
2023-01-09T18:22:12.396Z,8.96
2023-01-09T18:24:41.553Z,8.98
2023-01-09T18:27:09.957Z,8.95
2023-01-09T18:29:39.801Z,8.89
2023-01-09T18:32:09.377Z,8.87
2023-01-09T18:34:38.876Z,8.84
2023-01-09T18:37:07.325Z,8.84
2023-01-09T18:39:35.746Z,8.85
2023-01-09T18:42:04.135Z,8.87
2023-01-09T18:44:32.530Z,8.86
2023-01-09T18:47:02.240Z,8.83
2023-01-09T18:49:30.581Z,8.72
2023-01-09T18:51:58.982Z,8.64
2023-01-09T18:54:27.325Z,8.41
2023-01-09T18:56:55.940Z,8.11
2023-01-09T18:59:24.265Z,8.49
2023-01-09T19:01:52.596Z,8.45
2023-01-09T19:04:22.413Z,8.44
2023-01-09T19:06:50.837Z,8.41
2023-01-09T19:09:19.240Z,7.84
2023-01-09T19:11:47.660Z,8.34
2023-01-09T19:14:16.076Z,8.32
2023-01-09T19:16:44.504Z,8.36
2023-01-09T19:19:12.959Z,8.38
2023-01-09T19:21:44.252Z,8.41
2023-01-09T19:24:12.599Z,8.42
2023-01-09T19:26:40.958Z,8.45
2023-01-09T19:29:09.694Z,8.46
2023-01-09T19:31:38.139Z,8.46
2023-01-09T19:34:06.581Z,8.47
2023-01-09T19:36:35.187Z,8.47
2023-01-09T19:39:05.458Z,8.53
2023-01-09T19:41:33.761Z,8.58
2023-01-09T19:44:02.386Z,8.58
2023-01-09T19:46:33.606Z,8.56
2023-01-09T19:49:04.935Z,8.54
2023-01-09T19:51:34.575Z,8.37
2023-01-09T19:56:35.727Z,8.51
2023-01-09T19:59:06.512Z,8.50
2023-01-09T20:01:36.205Z,8.38
2023-01-09T20:04:10.123Z,8.44
2023-01-09T20:06:41.770Z,8.42
2023-01-09T20:09:12.527Z,8.43
2023-01-09T20:11:41.743Z,8.45
2023-01-09T20:14:12.615Z,8.41
2023-01-09T20:16:41.686Z,8.32
2023-01-09T20:19:12.687Z,8.40
2023-01-09T20:21:41.427Z,8.41
2023-01-09T20:24:13.675Z,7.69
2023-01-09T20:26:42.539Z,8.24
2023-01-09T20:29:10.949Z,8.31
2023-01-09T20:31:39.336Z,8.33
2023-01-09T20:34:08.681Z,8.33
2023-01-09T20:36:37.181Z,8.33
2023-01-09T20:39:07.524Z,8.18
2023-01-09T20:41:37.305Z,8.34
2023-01-09T20:44:08.052Z,8.35
2023-01-09T20:46:38.326Z,8.36
2023-01-09T20:49:08.725Z,8.38
2023-01-09T20:51:38.013Z,8.38
2023-01-09T20:54:06.377Z,8.36
2023-01-09T20:56:36.320Z,8.29
2023-01-09T20:59:07.066Z,8.34
2023-01-09T21:01:35.793Z,8.33
2023-01-09T21:04:04.246Z,8.34
2023-01-09T21:06:32.988Z,8.22
2023-01-09T21:09:01.408Z,8.37
2023-01-09T21:11:30.336Z,8.37
2023-01-09T21:14:00.017Z,8.37
2023-01-09T21:16:29.901Z,8.31
2023-01-09T21:18:58.366Z,8.34
2023-01-09T21:21:28.641Z,8.14
2023-01-09T21:23:58.630Z,8.34
2023-01-09T21:26:29.156Z,8.31
2023-01-09T21:29:00.088Z,7.46
2023-01-09T21:31:34.783Z,8.28
2023-01-09T21:34:05.115Z,8.27
2023-01-09T21:36:35.522Z,8.31
2023-01-09T21:39:07.589Z,8.36
2023-01-09T21:41:54.887Z,8.35
2023-01-09T21:44:40.743Z,8.35
2023-01-09T21:47:10.940Z,8.37
2023-01-09T21:49:41.416Z,8.35
2023-01-09T21:52:10.625Z,8.35
2023-01-09T21:54:38.914Z,8.30
2023-01-09T21:57:07.465Z,8.29
2023-01-09T21:59:35.779Z,8.25
2023-01-09T22:02:04.117Z,8.26
2023-01-09T22:04:33.951Z,8.22
2023-01-09T22:07:02.306Z,8.25
2023-01-09T22:09:31.698Z,8.23
2023-01-09T22:12:00.116Z,8.24
2023-01-09T22:14:28.577Z,8.26
2023-01-09T22:16:56.913Z,8.30
2023-01-09T22:19:27.395Z,8.32
2023-01-09T22:21:57.875Z,8.30
2023-01-09T22:24:26.227Z,8.33
2023-01-09T22:26:54.549Z,8.32
2023-01-09T22:29:23.123Z,8.31
2023-01-09T22:31:51.626Z,8.27
2023-01-09T22:34:20.713Z,8.26
2023-01-09T22:36:49.197Z,8.23
2023-01-09T22:39:20.905Z,8.26
2023-01-09T22:41:52.585Z,8.26
2023-01-09T22:44:20.955Z,8.26
2023-01-09T22:46:49.213Z,8.23
2023-01-09T22:49:17.541Z,8.26
2023-01-09T22:51:45.993Z,8.28
2023-01-09T22:54:14.282Z,8.25
2023-01-09T22:56:44.009Z,8.23
2023-01-09T22:59:12.357Z,8.26
2023-01-09T23:01:43.818Z,8.25
2023-01-09T23:04:13.458Z,8.27
2023-01-09T23:06:42.127Z,8.28
2023-01-09T23:09:10.517Z,8.18
2023-01-09T23:11:56.421Z,8.26
2023-01-09T23:14:26.208Z,8.20
2023-01-09T23:16:54.984Z,8.19
2023-01-09T23:19:23.671Z,8.20
2023-01-09T23:21:51.967Z,8.19
2023-01-09T23:24:20.459Z,8.19
2023-01-09T23:26:49.815Z,8.19
2023-01-09T23:29:18.303Z,8.16
2023-01-09T23:31:48.083Z,8.15
2023-01-09T23:34:23.100Z,8.19
2023-01-09T23:36:52.130Z,8.23
2023-01-09T23:39:20.489Z,8.30
2023-01-09T23:42:14.862Z,8.31
2023-01-09T23:44:43.207Z,8.26
2023-01-09T23:47:12.932Z,8.31
2023-01-09T23:49:41.304Z,8.31
2023-01-09T23:52:09.703Z,8.33
2023-01-09T23:54:38.087Z,8.35
2023-01-09T23:57:06.637Z,8.37
2023-01-09T23:59:35.027Z,8.33
